OEGT

Gurayat Domestic Airport

Airport
ICAO code
OEGT
Summary
ICAO Region
MID
ICAO Territory
Location

Gurayat,

Coordinates
31° 24' 43" N , 37° 16' 44" E
KCC
Metar
Observation
OEGT 271500Z 13012KT CAVOK 17/00 Q1016 NOSIG
Station
Guriat
Date/Time
2023-01-27 15:00:00
Wind direction
130°
Wind speed
12 kts
Lowest cloud amount
clouds and visibility OK
Temperature
17°C
Dew point
0°C
Humidity
31%
QNH
1016 hPa
Weather condition
n/a

Description

Gurayat Domestic Airport is located 10 km northwest of Gurayat (also spelled Guriat or Qurayyat), Saudi Arabia.

Climatology

Hot Desert Climate (Köppen climate classification BWh) - Hot desert climates are typically found in the subtropics where there is unbroken sunshine for the whole year due to the stable descending air and high pressure, little or no precipitation. Maximum temperatures of 40°C to 45°C are not uncommon, particularly during the warmer months of the year. During colder periods of the year, night-time temperatures can drop to freezing or below due to the exceptional radiation loss under the clear skies. However, very rarely do temperatures drop far below freezing.

Runways

Designator Length Width Surface Rops
10/28 3050 45 ASP Yes/Yes

Airport map

Aerial View

SKYbrary Partners:

Safety knowledge contributed by: